sensor_id;sensor_type;location;lat;lon;timestamp;P1;durP1;ratioP1;P2;durP2;ratioP2
75689;SDS011;64303;53.118;9.044;2022-10-22T00:01:38;18.35;;;12.25;;
75689;SDS011;64303;53.118;9.044;2022-10-22T00:04:06;18.60;;;12.15;;
75689;SDS011;64303;53.118;9.044;2022-10-22T00:06:33;17.05;;;13.73;;
75689;SDS011;64303;53.118;9.044;2022-10-22T00:08:59;21.58;;;13.70;;
75689;SDS011;64303;53.118;9.044;2022-10-22T00:11:26;22.80;;;14.45;;
75689;SDS011;64303;53.118;9.044;2022-10-22T00:13:52;20.83;;;13.48;;
75689;SDS011;64303;53.118;9.044;2022-10-22T00:16:19;21.40;;;15.90;;
75689;SDS011;64303;53.118;9.044;2022-10-22T00:18:46;23.38;;;14.07;;
75689;SDS011;64303;53.118;9.044;2022-10-22T00:21:14;21.55;;;14.30;;
75689;SDS011;64303;53.118;9.044;2022-10-22T00:26:07;23.85;;;14.98;;
75689;SDS011;64303;53.118;9.044;2022-10-22T00:28:34;27.40;;;16.58;;
75689;SDS011;64303;53.118;9.044;2022-10-22T00:31:01;22.42;;;13.82;;
75689;SDS011;64303;53.118;9.044;2022-10-22T00:33:28;24.80;;;17.17;;
75689;SDS011;64303;53.118;9.044;2022-10-22T00:35:55;22.52;;;15.77;;
75689;SDS011;64303;53.118;9.044;2022-10-22T00:38:23;24.65;;;16.90;;
75689;SDS011;64303;53.118;9.044;2022-10-22T00:40:50;24.33;;;15.40;;
75689;SDS011;64303;53.118;9.044;2022-10-22T00:43:18;24.48;;;14.95;;
75689;SDS011;64303;53.118;9.044;2022-10-22T00:45:45;21.45;;;16.23;;
75689;SDS011;64303;53.118;9.044;2022-10-22T00:48:12;19.88;;;13.75;;
75689;SDS011;64303;53.118;9.044;2022-10-22T00:50:42;24.55;;;15.15;;
75689;SDS011;64303;53.118;9.044;2022-10-22T00:53:13;25.17;;;15.77;;
75689;SDS011;64303;53.118;9.044;2022-10-22T00:55:42;25.67;;;14.77;;
75689;SDS011;64303;53.118;9.044;2022-10-22T00:58:09;29.48;;;16.25;;
75689;SDS011;64303;53.118;9.044;2022-10-22T01:00:36;26.67;;;14.02;;
75689;SDS011;64303;53.118;9.044;2022-10-22T01:03:02;28.35;;;16.95;;
75689;SDS011;64303;53.118;9.044;2022-10-22T01:05:45;23.55;;;15.52;;
75689;SDS011;64303;53.118;9.044;2022-10-22T01:08:21;23.73;;;14.13;;
75689;SDS011;64303;53.118;9.044;2022-10-22T01:10:56;17.10;;;11.50;;
75689;SDS011;64303;53.118;9.044;2022-10-22T01:13:30;16.25;;;12.13;;
75689;SDS011;64303;53.118;9.044;2022-10-22T01:16:03;18.42;;;13.65;;
75689;SDS011;64303;53.118;9.044;2022-10-22T01:18:36;18.63;;;13.15;;
75689;SDS011;64303;53.118;9.044;2022-10-22T01:21:12;23.92;;;12.88;;
75689;SDS011;64303;53.118;9.044;2022-10-22T01:24:02;19.58;;;13.43;;
75689;SDS011;64303;53.118;9.044;2022-10-22T01:26:39;22.08;;;13.55;;
75689;SDS011;64303;53.118;9.044;2022-10-22T01:29:11;23.50;;;15.23;;
75689;SDS011;64303;53.118;9.044;2022-10-22T01:31:40;20.30;;;14.80;;
75689;SDS011;64303;53.118;9.044;2022-10-22T01:34:08;16.90;;;13.43;;
75689;SDS011;64303;53.118;9.044;2022-10-22T01:36:37;26.08;;;15.70;;
75689;SDS011;64303;53.118;9.044;2022-10-22T01:39:04;22.23;;;15.70;;
75689;SDS011;64303;53.118;9.044;2022-10-22T01:41:31;22.65;;;14.48;;
75689;SDS011;64303;53.118;9.044;2022-10-22T01:43:59;17.55;;;11.90;;
75689;SDS011;64303;53.118;9.044;2022-10-22T01:46:27;25.67;;;15.40;;
75689;SDS011;64303;53.118;9.044;2022-10-22T01:48:58;18.35;;;10.80;;
75689;SDS011;64303;53.118;9.044;2022-10-22T01:51:40;14.85;;;11.20;;
75689;SDS011;64303;53.118;9.044;2022-10-22T01:54:16;15.40;;;12.07;;
75689;SDS011;64303;53.118;9.044;2022-10-22T01:56:52;18.73;;;12.82;;
75689;SDS011;64303;53.118;9.044;2022-10-22T01:59:23;13.05;;;10.25;;
75689;SDS011;64303;53.118;9.044;2022-10-22T02:02:01;16.95;;;12.80;;
75689;SDS011;64303;53.118;9.044;2022-10-22T02:04:31;14.93;;;10.68;;
75689;SDS011;64303;53.118;9.044;2022-10-22T02:07:00;19.33;;;12.57;;
75689;SDS011;64303;53.118;9.044;2022-10-22T02:09:30;21.95;;;13.95;;
75689;SDS011;64303;53.118;9.044;2022-10-22T02:12:01;18.02;;;12.88;;
75689;SDS011;64303;53.118;9.044;2022-10-22T02:14:31;23.02;;;14.32;;
75689;SDS011;64303;53.118;9.044;2022-10-22T02:17:01;26.80;;;15.27;;
75689;SDS011;64303;53.118;9.044;2022-10-22T02:19:29;21.80;;;13.27;;
75689;SDS011;64303;53.118;9.044;2022-10-22T02:22:01;16.02;;;12.88;;
75689;SDS011;64303;53.118;9.044;2022-10-22T02:24:28;16.63;;;13.02;;
75689;SDS011;64303;53.118;9.044;2022-10-22T02:26:58;19.15;;;13.68;;
75689;SDS011;64303;53.118;9.044;2022-10-22T02:29:27;22.85;;;13.57;;
75689;SDS011;64303;53.118;9.044;2022-10-22T02:31:56;15.55;;;10.30;;
75689;SDS011;64303;53.118;9.044;2022-10-22T02:34:26;16.58;;;10.75;;
75689;SDS011;64303;53.118;9.044;2022-10-22T02:36:53;14.07;;;10.43;;
75689;SDS011;64303;53.118;9.044;2022-10-22T02:39:21;18.10;;;13.10;;
75689;SDS011;64303;53.118;9.044;2022-10-22T02:41:48;16.80;;;10.45;;
75689;SDS011;64303;53.118;9.044;2022-10-22T02:44:14;16.65;;;11.60;;
75689;SDS011;64303;53.118;9.044;2022-10-22T02:46:41;17.88;;;12.70;;
75689;SDS011;64303;53.118;9.044;2022-10-22T02:49:08;14.70;;;12.15;;
75689;SDS011;64303;53.118;9.044;2022-10-22T02:51:36;17.90;;;13.48;;
75689;SDS011;64303;53.118;9.044;2022-10-22T02:54:03;16.70;;;13.30;;
75689;SDS011;64303;53.118;9.044;2022-10-22T02:56:30;19.35;;;12.63;;
75689;SDS011;64303;53.118;9.044;2022-10-22T02:58:56;16.52;;;12.73;;
75689;SDS011;64303;53.118;9.044;2022-10-22T03:01:23;15.30;;;10.98;;
75689;SDS011;64303;53.118;9.044;2022-10-22T03:03:50;17.70;;;12.13;;
75689;SDS011;64303;53.118;9.044;2022-10-22T03:06:17;14.70;;;10.65;;
75689;SDS011;64303;53.118;9.044;2022-10-22T03:08:45;14.15;;;12.65;;
75689;SDS011;64303;53.118;9.044;2022-10-22T03:11:11;11.63;;;9.50;;
75689;SDS011;64303;53.118;9.044;2022-10-22T03:13:41;13.82;;;11.60;;
75689;SDS011;64303;53.118;9.044;2022-10-22T03:16:08;15.30;;;10.40;;
75689;SDS011;64303;53.118;9.044;2022-10-22T03:18:34;14.27;;;12.18;;
75689;SDS011;64303;53.118;9.044;2022-10-22T03:21:03;16.10;;;10.25;;
75689;SDS011;64303;53.118;9.044;2022-10-22T03:23:33;12.90;;;9.27;;
75689;SDS011;64303;53.118;9.044;2022-10-22T03:26:02;15.45;;;11.10;;
75689;SDS011;64303;53.118;9.044;2022-10-22T03:28:29;15.07;;;12.18;;
75689;SDS011;64303;53.118;9.044;2022-10-22T03:30:56;17.15;;;10.82;;
75689;SDS011;64303;53.118;9.044;2022-10-22T03:33:22;14.63;;;11.00;;
75689;SDS011;64303;53.118;9.044;2022-10-22T03:35:49;16.73;;;10.85;;
75689;SDS011;64303;53.118;9.044;2022-10-22T03:38:15;11.10;;;9.05;;
75689;SDS011;64303;53.118;9.044;2022-10-22T03:40:42;22.35;;;12.77;;
75689;SDS011;64303;53.118;9.044;2022-10-22T03:43:11;12.20;;;9.52;;
75689;SDS011;64303;53.118;9.044;2022-10-22T03:45:38;15.07;;;10.65;;
75689;SDS011;64303;53.118;9.044;2022-10-22T03:48:04;13.02;;;8.93;;
75689;SDS011;64303;53.118;9.044;2022-10-22T03:50:31;11.23;;;9.60;;
75689;SDS011;64303;53.118;9.044;2022-10-22T03:52:58;16.05;;;12.60;;
75689;SDS011;64303;53.118;9.044;2022-10-22T03:55:24;13.48;;;10.40;;
75689;SDS011;64303;53.118;9.044;2022-10-22T03:57:51;15.63;;;11.15;;
75689;SDS011;64303;53.118;9.044;2022-10-22T04:00:20;12.90;;;10.63;;
75689;SDS011;64303;53.118;9.044;2022-10-22T04:02:46;20.73;;;11.82;;
75689;SDS011;64303;53.118;9.044;2022-10-22T04:05:13;16.50;;;10.68;;
75689;SDS011;64303;53.118;9.044;2022-10-22T04:07:40;18.48;;;11.07;;
75689;SDS011;64303;53.118;9.044;2022-10-22T04:10:06;15.18;;;11.25;;
75689;SDS011;64303;53.118;9.044;2022-10-22T04:12:34;14.52;;;10.30;;
75689;SDS011;64303;53.118;9.044;2022-10-22T04:15:00;17.00;;;13.60;;
75689;SDS011;64303;53.118;9.044;2022-10-22T04:17:32;13.63;;;10.45;;
75689;SDS011;64303;53.118;9.044;2022-10-22T04:20:00;11.10;;;8.90;;
75689;SDS011;64303;53.118;9.044;2022-10-22T04:22:27;16.17;;;8.88;;
75689;SDS011;64303;53.118;9.044;2022-10-22T04:24:53;23.50;;;13.52;;
75689;SDS011;64303;53.118;9.044;2022-10-22T04:27:20;24.70;;;13.15;;
75689;SDS011;64303;53.118;9.044;2022-10-22T04:29:47;15.25;;;9.77;;
75689;SDS011;64303;53.118;9.044;2022-10-22T04:32:13;16.77;;;10.10;;
75689;SDS011;64303;53.118;9.044;2022-10-22T04:34:41;19.10;;;12.13;;
75689;SDS011;64303;53.118;9.044;2022-10-22T04:37:08;13.38;;;9.60;;
75689;SDS011;64303;53.118;9.044;2022-10-22T04:39:35;11.88;;;9.35;;
75689;SDS011;64303;53.118;9.044;2022-10-22T04:42:01;12.10;;;9.70;;
75689;SDS011;64303;53.118;9.044;2022-10-22T04:44:28;13.38;;;9.30;;
75689;SDS011;64303;53.118;9.044;2022-10-22T04:46:54;15.07;;;10.10;;
75689;SDS011;64303;53.118;9.044;2022-10-22T04:49:21;12.73;;;9.38;;
75689;SDS011;64303;53.118;9.044;2022-10-22T04:51:49;22.95;;;14.00;;
75689;SDS011;64303;53.118;9.044;2022-10-22T04:54:16;13.10;;;10.07;;
75689;SDS011;64303;53.118;9.044;2022-10-22T04:56:42;14.13;;;9.75;;
75689;SDS011;64303;53.118;9.044;2022-10-22T04:59:10;15.30;;;10.20;;
75689;SDS011;64303;53.118;9.044;2022-10-22T05:01:38;13.98;;;10.77;;
75689;SDS011;64303;53.118;9.044;2022-10-22T05:04:06;10.70;;;9.60;;
75689;SDS011;64303;53.118;9.044;2022-10-22T05:06:34;12.38;;;8.27;;
75689;SDS011;64303;53.118;9.044;2022-10-22T05:09:03;12.27;;;8.70;;
75689;SDS011;64303;53.118;9.044;2022-10-22T05:11:32;15.70;;;10.43;;
75689;SDS011;64303;53.118;9.044;2022-10-22T05:14:00;13.57;;;11.25;;
75689;SDS011;64303;53.118;9.044;2022-10-22T05:16:27;15.95;;;11.13;;
75689;SDS011;64303;53.118;9.044;2022-10-22T05:18:55;11.85;;;10.60;;
75689;SDS011;64303;53.118;9.044;2022-10-22T05:21:23;10.88;;;8.50;;
75689;SDS011;64303;53.118;9.044;2022-10-22T05:23:50;7.97;;;7.18;;
75689;SDS011;64303;53.118;9.044;2022-10-22T05:26:19;10.80;;;9.35;;
75689;SDS011;64303;53.118;9.044;2022-10-22T05:28:47;9.80;;;6.28;;
75689;SDS011;64303;53.118;9.044;2022-10-22T05:31:14;7.57;;;6.75;;
75689;SDS011;64303;53.118;9.044;2022-10-22T05:33:41;9.73;;;8.43;;
75689;SDS011;64303;53.118;9.044;2022-10-22T05:36:10;9.93;;;8.25;;
75689;SDS011;64303;53.118;9.044;2022-10-22T05:38:38;13.00;;;9.00;;
75689;SDS011;64303;53.118;9.044;2022-10-22T05:41:05;13.13;;;11.32;;
75689;SDS011;64303;53.118;9.044;2022-10-22T05:43:35;12.75;;;10.93;;
75689;SDS011;64303;53.118;9.044;2022-10-22T05:46:02;11.43;;;10.32;;
75689;SDS011;64303;53.118;9.044;2022-10-22T05:48:30;10.85;;;8.88;;
75689;SDS011;64303;53.118;9.044;2022-10-22T05:50:59;14.10;;;12.68;;
75689;SDS011;64303;53.118;9.044;2022-10-22T05:53:29;13.95;;;12.05;;
75689;SDS011;64303;53.118;9.044;2022-10-22T05:55:58;11.65;;;9.00;;
75689;SDS011;64303;53.118;9.044;2022-10-22T05:58:25;20.85;;;14.85;;
75689;SDS011;64303;53.118;9.044;2022-10-22T06:00:53;17.38;;;13.82;;
75689;SDS011;64303;53.118;9.044;2022-10-22T06:03:20;17.05;;;12.98;;
75689;SDS011;64303;53.118;9.044;2022-10-22T06:05:46;14.68;;;10.95;;
75689;SDS011;64303;53.118;9.044;2022-10-22T06:08:13;11.93;;;10.10;;
75689;SDS011;64303;53.118;9.044;2022-10-22T06:10:40;14.30;;;9.63;;
75689;SDS011;64303;53.118;9.044;2022-10-22T06:13:08;16.33;;;11.43;;
75689;SDS011;64303;53.118;9.044;2022-10-22T06:15:34;19.10;;;12.85;;
75689;SDS011;64303;53.118;9.044;2022-10-22T06:18:02;23.63;;;17.58;;
75689;SDS011;64303;53.118;9.044;2022-10-22T06:22:56;21.73;;;15.70;;
75689;SDS011;64303;53.118;9.044;2022-10-22T06:25:22;17.73;;;13.32;;
75689;SDS011;64303;53.118;9.044;2022-10-22T06:27:49;17.58;;;12.50;;
75689;SDS011;64303;53.118;9.044;2022-10-22T06:30:16;15.15;;;12.00;;
75689;SDS011;64303;53.118;9.044;2022-10-22T06:32:43;17.15;;;14.13;;
75689;SDS011;64303;53.118;9.044;2022-10-22T06:35:11;16.98;;;10.35;;
75689;SDS011;64303;53.118;9.044;2022-10-22T06:37:38;12.57;;;9.65;;
75689;SDS011;64303;53.118;9.044;2022-10-22T06:40:05;18.67;;;10.15;;
75689;SDS011;64303;53.118;9.044;2022-10-22T06:42:32;23.38;;;13.88;;
75689;SDS011;64303;53.118;9.044;2022-10-22T06:44:59;10.70;;;9.23;;
75689;SDS011;64303;53.118;9.044;2022-10-22T06:47:25;12.90;;;11.52;;
75689;SDS011;64303;53.118;9.044;2022-10-22T06:49:52;23.27;;;13.77;;
75689;SDS011;64303;53.118;9.044;2022-10-22T06:52:20;13.18;;;11.18;;
75689;SDS011;64303;53.118;9.044;2022-10-22T06:54:47;11.73;;;10.48;;
75689;SDS011;64303;53.118;9.044;2022-10-22T06:57:13;14.45;;;11.02;;
75689;SDS011;64303;53.118;9.044;2022-10-22T06:59:40;13.32;;;10.55;;
75689;SDS011;64303;53.118;9.044;2022-10-22T07:02:07;35.83;;;18.20;;
75689;SDS011;64303;53.118;9.044;2022-10-22T07:04:34;12.90;;;10.68;;
75689;SDS011;64303;53.118;9.044;2022-10-22T07:07:00;19.88;;;13.30;;
75689;SDS011;64303;53.118;9.044;2022-10-22T07:09:28;20.08;;;14.43;;
75689;SDS011;64303;53.118;9.044;2022-10-22T07:11:55;31.27;;;16.80;;
75689;SDS011;64303;53.118;9.044;2022-10-22T07:14:21;21.02;;;12.75;;
75689;SDS011;64303;53.118;9.044;2022-10-22T07:16:48;24.33;;;17.35;;
75689;SDS011;64303;53.118;9.044;2022-10-22T07:19:15;28.48;;;18.20;;
75689;SDS011;64303;53.118;9.044;2022-10-22T07:21:41;30.80;;;15.77;;
75689;SDS011;64303;53.118;9.044;2022-10-22T07:24:08;35.05;;;17.02;;
75689;SDS011;64303;53.118;9.044;2022-10-22T07:26:36;24.25;;;15.48;;
75689;SDS011;64303;53.118;9.044;2022-10-22T07:31:29;26.05;;;14.98;;
75689;SDS011;64303;53.118;9.044;2022-10-22T07:33:56;23.75;;;15.45;;
75689;SDS011;64303;53.118;9.044;2022-10-22T07:36:23;26.60;;;16.30;;
75689;SDS011;64303;53.118;9.044;2022-10-22T07:38:52;28.77;;;18.42;;
75689;SDS011;64303;53.118;9.044;2022-10-22T07:41:19;23.08;;;16.58;;
75689;SDS011;64303;53.118;9.044;2022-10-22T07:46:15;26.02;;;16.17;;
75689;SDS011;64303;53.118;9.044;2022-10-22T07:48:42;27.90;;;16.67;;
75689;SDS011;64303;53.118;9.044;2022-10-22T07:51:08;25.17;;;15.88;;
75689;SDS011;64303;53.118;9.044;2022-10-22T07:53:35;25.48;;;15.98;;
75689;SDS011;64303;53.118;9.044;2022-10-22T07:56:02;27.90;;;14.57;;
75689;SDS011;64303;53.118;9.044;2022-10-22T07:58:29;21.92;;;13.60;;
75689;SDS011;64303;53.118;9.044;2022-10-22T08:00:58;19.85;;;14.10;;
75689;SDS011;64303;53.118;9.044;2022-10-22T08:03:25;18.20;;;12.15;;
75689;SDS011;64303;53.118;9.044;2022-10-22T08:05:52;18.60;;;11.43;;
75689;SDS011;64303;53.118;9.044;2022-10-22T08:08:19;16.77;;;11.13;;
75689;SDS011;64303;53.118;9.044;2022-10-22T08:10:48;18.88;;;11.68;;
75689;SDS011;64303;53.118;9.044;2022-10-22T08:13:16;17.60;;;10.70;;
75689;SDS011;64303;53.118;9.044;2022-10-22T08:15:43;15.70;;;10.98;;
75689;SDS011;64303;53.118;9.044;2022-10-22T08:18:12;15.27;;;10.35;;
75689;SDS011;64303;53.118;9.044;2022-10-22T08:20:39;17.90;;;9.30;;
75689;SDS011;64303;53.118;9.044;2022-10-22T08:23:06;13.00;;;10.65;;
75689;SDS011;64303;53.118;9.044;2022-10-22T08:25:33;14.43;;;11.63;;
75689;SDS011;64303;53.118;9.044;2022-10-22T08:28:00;14.10;;;10.43;;
75689;SDS011;64303;53.118;9.044;2022-10-22T08:30:26;13.32;;;9.40;;
75689;SDS011;64303;53.118;9.044;2022-10-22T08:32:54;14.65;;;10.02;;
75689;SDS011;64303;53.118;9.044;2022-10-22T08:35:22;14.40;;;10.32;;
75689;SDS011;64303;53.118;9.044;2022-10-22T08:37:48;12.40;;;10.73;;
75689;SDS011;64303;53.118;9.044;2022-10-22T08:40:19;10.73;;;8.68;;
75689;SDS011;64303;53.118;9.044;2022-10-22T08:43:02;11.13;;;8.00;;
75689;SDS011;64303;53.118;9.044;2022-10-22T08:45:36;12.55;;;9.20;;
75689;SDS011;64303;53.118;9.044;2022-10-22T08:48:10;14.73;;;9.07;;
75689;SDS011;64303;53.118;9.044;2022-10-22T08:50:46;12.43;;;7.93;;
75689;SDS011;64303;53.118;9.044;2022-10-22T08:53:14;12.45;;;8.30;;
75689;SDS011;64303;53.118;9.044;2022-10-22T08:55:43;11.60;;;8.63;;
75689;SDS011;64303;53.118;9.044;2022-10-22T08:58:13;9.90;;;7.45;;
75689;SDS011;64303;53.118;9.044;2022-10-22T09:00:45;13.07;;;9.70;;
75689;SDS011;64303;53.118;9.044;2022-10-22T09:03:22;8.73;;;6.43;;
75689;SDS011;64303;53.118;9.044;2022-10-22T09:06:00;8.82;;;6.22;;
75689;SDS011;64303;53.118;9.044;2022-10-22T09:08:28;11.90;;;6.80;;
75689;SDS011;64303;53.118;9.044;2022-10-22T09:10:57;8.90;;;4.85;;
75689;SDS011;64303;53.118;9.044;2022-10-22T09:13:27;7.28;;;5.80;;
75689;SDS011;64303;53.118;9.044;2022-10-22T09:15:55;9.60;;;6.32;;
75689;SDS011;64303;53.118;9.044;2022-10-22T09:18:30;9.05;;;6.07;;
75689;SDS011;64303;53.118;9.044;2022-10-22T09:21:04;7.47;;;6.68;;
75689;SDS011;64303;53.118;9.044;2022-10-22T09:23:36;6.85;;;5.82;;
75689;SDS011;64303;53.118;9.044;2022-10-22T09:26:08;9.68;;;5.05;;
75689;SDS011;64303;53.118;9.044;2022-10-22T09:28:38;8.15;;;4.80;;
75689;SDS011;64303;53.118;9.044;2022-10-22T09:31:07;9.65;;;4.78;;
75689;SDS011;64303;53.118;9.044;2022-10-22T09:33:36;8.20;;;5.80;;
75689;SDS011;64303;53.118;9.044;2022-10-22T09:36:04;6.80;;;5.75;;
75689;SDS011;64303;53.118;9.044;2022-10-22T09:38:33;9.02;;;6.18;;
75689;SDS011;64303;53.118;9.044;2022-10-22T09:41:04;6.72;;;5.22;;
75689;SDS011;64303;53.118;9.044;2022-10-22T09:43:31;8.50;;;6.20;;
75689;SDS011;64303;53.118;9.044;2022-10-22T09:46:01;6.13;;;4.82;;
75689;SDS011;64303;53.118;9.044;2022-10-22T09:48:29;7.35;;;4.35;;
75689;SDS011;64303;53.118;9.044;2022-10-22T09:51:01;9.57;;;4.20;;
75689;SDS011;64303;53.118;9.044;2022-10-22T09:53:35;7.88;;;4.72;;
75689;SDS011;64303;53.118;9.044;2022-10-22T09:56:05;6.30;;;4.95;;
75689;SDS011;64303;53.118;9.044;2022-10-22T09:58:39;7.60;;;4.50;;
75689;SDS011;64303;53.118;9.044;2022-10-22T10:01:14;5.80;;;4.22;;
75689;SDS011;64303;53.118;9.044;2022-10-22T10:03:42;5.13;;;3.67;;
75689;SDS011;64303;53.118;9.044;2022-10-22T10:06:10;7.53;;;5.18;;
75689;SDS011;64303;53.118;9.044;2022-10-22T10:08:36;7.57;;;4.43;;
75689;SDS011;64303;53.118;9.044;2022-10-22T10:11:05;9.60;;;7.07;;
75689;SDS011;64303;53.118;9.044;2022-10-22T10:13:37;6.60;;;3.63;;
75689;SDS011;64303;53.118;9.044;2022-10-22T10:16:11;9.43;;;4.72;;
75689;SDS011;64303;53.118;9.044;2022-10-22T10:18:55;7.85;;;3.78;;
75689;SDS011;64303;53.118;9.044;2022-10-22T10:21:28;7.43;;;3.10;;
75689;SDS011;64303;53.118;9.044;2022-10-22T10:24:00;8.73;;;4.95;;
75689;SDS011;64303;53.118;9.044;2022-10-22T10:26:30;6.35;;;3.78;;
75689;SDS011;64303;53.118;9.044;2022-10-22T10:29:07;6.68;;;5.70;;
75689;SDS011;64303;53.118;9.044;2022-10-22T10:31:44;8.35;;;4.68;;
75689;SDS011;64303;53.118;9.044;2022-10-22T10:34:29;7.35;;;4.85;;
75689;SDS011;64303;53.118;9.044;2022-10-22T10:37:03;9.00;;;4.50;;
75689;SDS011;64303;53.118;9.044;2022-10-22T10:39:41;6.78;;;4.13;;
75689;SDS011;64303;53.118;9.044;2022-10-22T10:42:15;5.35;;;3.70;;
75689;SDS011;64303;53.118;9.044;2022-10-22T10:44:53;6.38;;;3.42;;
75689;SDS011;64303;53.118;9.044;2022-10-22T10:47:30;5.97;;;3.55;;
75689;SDS011;64303;53.118;9.044;2022-10-22T10:50:12;11.23;;;5.22;;
75689;SDS011;64303;53.118;9.044;2022-10-22T10:52:45;9.18;;;4.75;;
75689;SDS011;64303;53.118;9.044;2022-10-22T10:55:21;6.47;;;4.47;;
75689;SDS011;64303;53.118;9.044;2022-10-22T10:57:53;9.23;;;5.78;;
75689;SDS011;64303;53.118;9.044;2022-10-22T11:00:25;5.88;;;3.50;;
75689;SDS011;64303;53.118;9.044;2022-10-22T11:03:13;6.97;;;3.75;;
75689;SDS011;64303;53.118;9.044;2022-10-22T11:06:02;9.15;;;4.95;;
75689;SDS011;64303;53.118;9.044;2022-10-22T11:08:31;7.55;;;4.00;;
75689;SDS011;64303;53.118;9.044;2022-10-22T11:11:00;7.22;;;4.22;;
75689;SDS011;64303;53.118;9.044;2022-10-22T11:13:29;7.05;;;4.38;;
75689;SDS011;64303;53.118;9.044;2022-10-22T11:15:58;8.52;;;4.65;;
75689;SDS011;64303;53.118;9.044;2022-10-22T11:18:29;5.97;;;3.78;;
75689;SDS011;64303;53.118;9.044;2022-10-22T11:21:04;6.65;;;4.68;;
75689;SDS011;64303;53.118;9.044;2022-10-22T11:23:36;7.45;;;3.40;;
75689;SDS011;64303;53.118;9.044;2022-10-22T11:26:08;6.38;;;3.35;;
75689;SDS011;64303;53.118;9.044;2022-10-22T11:28:39;7.75;;;3.50;;
75689;SDS011;64303;53.118;9.044;2022-10-22T11:31:08;8.10;;;3.33;;
75689;SDS011;64303;53.118;9.044;2022-10-22T11:33:41;9.18;;;3.47;;
75689;SDS011;64303;53.118;9.044;2022-10-22T11:36:11;7.05;;;4.78;;
75689;SDS011;64303;53.118;9.044;2022-10-22T11:38:39;8.65;;;4.70;;
75689;SDS011;64303;53.118;9.044;2022-10-22T11:41:08;6.60;;;4.38;;
75689;SDS011;64303;53.118;9.044;2022-10-22T11:43:50;5.22;;;4.65;;
75689;SDS011;64303;53.118;9.044;2022-10-22T11:46:30;8.15;;;4.82;;
75689;SDS011;64303;53.118;9.044;2022-10-22T11:49:13;8.55;;;3.28;;
75689;SDS011;64303;53.118;9.044;2022-10-22T11:54:29;6.60;;;2.63;;
75689;SDS011;64303;53.118;9.044;2022-10-22T11:57:15;6.75;;;3.03;;
75689;SDS011;64303;53.118;9.044;2022-10-22T11:59:50;6.55;;;3.63;;
75689;SDS011;64303;53.118;9.044;2022-10-22T12:02:31;9.27;;;5.72;;
75689;SDS011;64303;53.118;9.044;2022-10-22T12:08:02;8.90;;;3.25;;
75689;SDS011;64303;53.118;9.044;2022-10-22T12:10:48;9.05;;;3.15;;
75689;SDS011;64303;53.118;9.044;2022-10-22T12:13:21;7.60;;;4.50;;
75689;SDS011;64303;53.118;9.044;2022-10-22T12:15:50;7.78;;;2.92;;
75689;SDS011;64303;53.118;9.044;2022-10-22T12:18:20;7.15;;;2.95;;
75689;SDS011;64303;53.118;9.044;2022-10-22T12:20:49;8.45;;;2.63;;
75689;SDS011;64303;53.118;9.044;2022-10-22T12:23:16;8.60;;;3.88;;
75689;SDS011;64303;53.118;9.044;2022-10-22T12:25:42;8.40;;;4.07;;
75689;SDS011;64303;53.118;9.044;2022-10-22T12:28:11;10.77;;;3.28;;
75689;SDS011;64303;53.118;9.044;2022-10-22T12:30:38;9.45;;;4.07;;
75689;SDS011;64303;53.118;9.044;2022-10-22T12:33:06;8.32;;;3.83;;
75689;SDS011;64303;53.118;9.044;2022-10-22T12:35:34;7.53;;;4.45;;
75689;SDS011;64303;53.118;9.044;2022-10-22T12:38:11;7.20;;;3.85;;
75689;SDS011;64303;53.118;9.044;2022-10-22T12:40:40;6.72;;;4.15;;
75689;SDS011;64303;53.118;9.044;2022-10-22T12:43:11;5.55;;;3.25;;
75689;SDS011;64303;53.118;9.044;2022-10-22T12:45:39;6.32;;;3.50;;
75689;SDS011;64303;53.118;9.044;2022-10-22T12:50:34;5.13;;;2.85;;
75689;SDS011;64303;53.118;9.044;2022-10-22T12:53:03;10.00;;;3.65;;
75689;SDS011;64303;53.118;9.044;2022-10-22T12:55:31;6.22;;;2.58;;
75689;SDS011;64303;53.118;9.044;2022-10-22T13:00:28;5.35;;;3.28;;
75689;SDS011;64303;53.118;9.044;2022-10-22T13:02:59;6.30;;;5.65;;
75689;SDS011;64303;53.118;9.044;2022-10-22T13:05:29;7.35;;;2.72;;
75689;SDS011;64303;53.118;9.044;2022-10-22T13:08:04;7.68;;;3.90;;
75689;SDS011;64303;53.118;9.044;2022-10-22T13:10:34;5.13;;;3.20;;
75689;SDS011;64303;53.118;9.044;2022-10-22T13:13:02;6.47;;;3.75;;
75689;SDS011;64303;53.118;9.044;2022-10-22T13:15:33;7.13;;;4.75;;
75689;SDS011;64303;53.118;9.044;2022-10-22T13:18:03;7.63;;;2.95;;
75689;SDS011;64303;53.118;9.044;2022-10-22T13:20:31;6.55;;;4.00;;
75689;SDS011;64303;53.118;9.044;2022-10-22T13:23:02;5.65;;;3.10;;
75689;SDS011;64303;53.118;9.044;2022-10-22T13:25:30;6.80;;;4.55;;
75689;SDS011;64303;53.118;9.044;2022-10-22T13:28:00;10.10;;;4.65;;
75689;SDS011;64303;53.118;9.044;2022-10-22T13:30:29;5.72;;;3.25;;
75689;SDS011;64303;53.118;9.044;2022-10-22T13:32:58;8.15;;;3.53;;
75689;SDS011;64303;53.118;9.044;2022-10-22T13:35:26;9.18;;;3.42;;
75689;SDS011;64303;53.118;9.044;2022-10-22T13:37:54;6.35;;;4.43;;
75689;SDS011;64303;53.118;9.044;2022-10-22T13:40:21;7.93;;;3.65;;
75689;SDS011;64303;53.118;9.044;2022-10-22T13:42:48;5.93;;;4.05;;
75689;SDS011;64303;53.118;9.044;2022-10-22T13:45:14;7.43;;;4.70;;
75689;SDS011;64303;53.118;9.044;2022-10-22T13:47:43;6.97;;;3.47;;
75689;SDS011;64303;53.118;9.044;2022-10-22T13:50:14;6.15;;;3.67;;
75689;SDS011;64303;53.118;9.044;2022-10-22T13:52:44;6.05;;;3.42;;
75689;SDS011;64303;53.118;9.044;2022-10-22T13:55:12;8.15;;;4.15;;
75689;SDS011;64303;53.118;9.044;2022-10-22T13:57:41;6.85;;;4.03;;
75689;SDS011;64303;53.118;9.044;2022-10-22T14:00:09;7.85;;;4.30;;
75689;SDS011;64303;53.118;9.044;2022-10-22T14:02:37;7.65;;;4.22;;
75689;SDS011;64303;53.118;9.044;2022-10-22T14:05:05;5.95;;;3.53;;
75689;SDS011;64303;53.118;9.044;2022-10-22T14:07:35;7.03;;;4.13;;
75689;SDS011;64303;53.118;9.044;2022-10-22T14:10:02;8.05;;;4.25;;
75689;SDS011;64303;53.118;9.044;2022-10-22T14:12:31;5.20;;;4.13;;
75689;SDS011;64303;53.118;9.044;2022-10-22T14:14:58;8.52;;;3.45;;
75689;SDS011;64303;53.118;9.044;2022-10-22T14:17:24;7.15;;;3.85;;
75689;SDS011;64303;53.118;9.044;2022-10-22T14:19:51;5.35;;;4.82;;
75689;SDS011;64303;53.118;9.044;2022-10-22T14:22:18;5.88;;;3.30;;
75689;SDS011;64303;53.118;9.044;2022-10-22T14:24:46;5.78;;;3.33;;
75689;SDS011;64303;53.118;9.044;2022-10-22T14:27:14;5.60;;;3.80;;
75689;SDS011;64303;53.118;9.044;2022-10-22T14:29:40;5.68;;;3.38;;
75689;SDS011;64303;53.118;9.044;2022-10-22T14:32:14;6.40;;;2.60;;
75689;SDS011;64303;53.118;9.044;2022-10-22T14:34:41;11.10;;;3.35;;
75689;SDS011;64303;53.118;9.044;2022-10-22T14:37:12;7.10;;;4.68;;
75689;SDS011;64303;53.118;9.044;2022-10-22T14:39:40;5.88;;;3.65;;
75689;SDS011;64303;53.118;9.044;2022-10-22T14:42:09;6.40;;;3.45;;
75689;SDS011;64303;53.118;9.044;2022-10-22T14:44:36;5.78;;;2.78;;
75689;SDS011;64303;53.118;9.044;2022-10-22T14:47:02;3.53;;;2.88;;
75689;SDS011;64303;53.118;9.044;2022-10-22T14:49:29;5.70;;;3.35;;
75689;SDS011;64303;53.118;9.044;2022-10-22T14:51:56;5.00;;;3.67;;
75689;SDS011;64303;53.118;9.044;2022-10-22T14:54:22;5.30;;;4.40;;
75689;SDS011;64303;53.118;9.044;2022-10-22T14:56:49;5.95;;;3.03;;
75689;SDS011;64303;53.118;9.044;2022-10-22T14:59:17;9.32;;;5.10;;
75689;SDS011;64303;53.118;9.044;2022-10-22T15:01:43;8.30;;;3.15;;
75689;SDS011;64303;53.118;9.044;2022-10-22T15:04:10;6.28;;;3.88;;
75689;SDS011;64303;53.118;9.044;2022-10-22T15:06:37;6.72;;;4.00;;